Time;durP1;ratioP1;P1;durP2;ratioP2;P2;SDS_P1;SDS_P2;PMS_P1;PMS_P2;Temp;Humidity;BMP_temperature;BMP_pressure;BME280_temperature;BME280_humidity;BME280_pressure;Samples;Min_cycle;Max_cycle;Signal;HPM_P1;HPM_P2
2021/01/15 00:00:59;;;;;;;3.20;1.53;;;-0.10;67.30;;;;;;5031196;28;20539;-66
2021/01/15 00:03:25;;;;;;;6.87;2.90;;;-0.10;67.30;;;;;;5055103;23;20226;-65
2021/01/15 00:05:51;;;;;;;3.73;1.77;;;-0.10;67.10;;;;;;5039607;28;20214;-66
2021/01/15 00:08:17;;;;;;;5.07;2.60;;;;;;;;;;5049199;23;20264;-66
2021/01/15 00:10:43;;;;;;;3.43;1.80;;;;;;;;;;5031619;28;20194;-66
2021/01/15 00:13:08;;;;;;;3.30;1.67;;;-0.10;66.90;;;;;;5035525;23;20230;-66
2021/01/15 00:15:34;;;;;;;3.00;1.60;;;;;;;;;;5024743;28;20271;-66
2021/01/15 00:18:00;;;;;;;2.50;1.30;;;-0.10;67.20;;;;;;5049219;23;20689;-66
2021/01/15 00:20:26;;;;;;;6.10;2.70;;;;;;;;;;5052350;23;20229;-65
2021/01/15 00:22:52;;;;;;;5.67;1.70;;;;;;;;;;5050266;23;20279;-69
2021/01/15 00:25:18;;;;;;;6.53;3.03;;;-0.20;67.20;;;;;;5032781;28;20277;-65
2021/01/15 00:27:44;;;;;;;3.47;1.80;;;;;;;;;;5053729;23;20230;-65
2021/01/15 00:30:10;;;;;;;3.93;1.70;;;-0.20;67.70;;;;;;5046433;23;20257;-66
2021/01/15 00:32:37;;;;;;;2.93;2.07;;;-0.20;67.40;;;;;;5036374;23;20242;-66
2021/01/15 00:35:06;;;;;;;4.27;2.20;;;-0.20;67.70;;;;;;5039828;23;20257;-66
2021/01/15 00:37:33;;;;;;;5.13;2.23;;;-0.30;68.10;;;;;;5029649;23;20297;-65
2021/01/15 00:39:59;;;;;;;3.30;1.73;;;-0.30;68.00;;;;;;5034572;23;20258;-65
2021/01/15 00:42:25;;;;;;;3.93;2.00;;;-0.20;67.80;;;;;;5049014;23;20238;-65
2021/01/15 00:44:50;;;;;;;4.93;2.47;;;-0.20;67.80;;;;;;5048894;28;20194;-66
2021/01/15 00:47:16;;;;;;;4.93;1.90;;;;;;;;;;5038675;28;20189;-66
2021/01/15 00:49:42;;;;;;;3.77;1.63;;;;;;;;;;5032812;23;20590;-66
2021/01/15 00:52:08;;;;;;;6.23;2.27;;;-0.30;68.50;;;;;;5029038;28;20203;-65
2021/01/15 00:54:34;;;;;;;4.47;2.20;;;;;;;;;;5034108;23;20243;-65
2021/01/15 00:57:01;;;;;;;3.87;1.67;;;0.10;69.00;;;;;;5009230;28;20207;-66
2021/01/15 00:59:27;;;;;;;7.43;2.50;;;-0.30;68.80;;;;;;5030656;23;20261;-65
2021/01/15 01:01:52;;;;;;;3.10;1.47;;;-0.30;68.90;;;;;;5024822;28;20191;-66
2021/01/15 01:04:18;;;;;;;4.40;1.97;;;-0.40;69.00;;;;;;5016801;28;20215;-65
2021/01/15 01:06:44;;;;;;;6.50;1.97;;;-0.30;69.10;;;;;;5030348;28;20218;-65
2021/01/15 01:09:10;;;;;;;4.77;2.27;;;;;;;;;;5053810;23;20324;-65
2021/01/15 01:11:35;;;;;;;2.97;1.27;;;-0.30;69.60;;;;;;5051093;28;20190;-65
2021/01/15 01:14:03;;;;;;;3.60;1.47;;;-0.40;69.50;;;;;;5040567;23;20284;-65
2021/01/15 01:16:30;;;;;;;3.10;1.70;;;-0.40;69.80;;;;;;5051580;23;20336;-65
2021/01/15 01:18:56;;;;;;;4.63;1.83;;;-0.40;70.20;;;;;;5053558;23;20310;-65
2021/01/15 01:21:25;;;;;;;3.67;2.00;;;-0.30;69.90;;;;;;5038201;23;21012;-66
2021/01/15 01:23:52;;;;;;;3.30;1.57;;;-0.40;70.00;;;;;;5038981;23;20227;-66
2021/01/15 01:26:18;;;;;;;2.63;1.53;;;-0.40;70.40;;;;;;5029078;28;20227;-65
2021/01/15 01:28:45;;;;;;;4.40;2.33;;;-0.40;70.50;;;;;;5052992;23;20264;-66
2021/01/15 01:31:11;;;;;;;3.73;1.67;;;-0.40;70.70;;;;;;5052674;23;20231;-65
2021/01/15 01:33:38;;;;;;;4.97;2.17;;;-0.40;70.40;;;;;;5057563;23;20978;-65
2021/01/15 01:36:05;;;;;;;5.37;2.60;;;-0.40;70.20;;;;;;5045749;28;20214;-65
2021/01/15 01:38:31;;;;;;;2.93;1.57;;;-0.30;70.10;;;;;;5054004;23;20233;-65
2021/01/15 01:40:57;;;;;;;2.97;1.40;;;-0.40;70.20;;;;;;5042321;23;20235;-65
2021/01/15 01:43:23;;;;;;;7.63;2.27;;;-0.40;70.20;;;;;;5017753;23;20230;-66
2021/01/15 01:45:48;;;;;;;3.07;1.37;;;-0.40;70.10;;;;;;5039833;22;20727;-65
2021/01/15 01:48:15;;;;;;;6.63;2.73;;;-0.30;69.90;;;;;;5039185;28;20198;-65
2021/01/15 01:50:41;;;;;;;2.93;1.40;;;-0.40;69.90;;;;;;5036714;23;20223;-66
2021/01/15 01:53:09;;;;;;;4.00;1.97;;;-0.40;70.30;;;;;;5042001;23;20242;-66
2021/01/15 01:55:37;;;;;;;4.17;1.80;;;-0.50;70.90;;;;;;5041697;23;20239;-66
2021/01/15 01:58:02;;;;;;;5.80;2.30;;;-0.40;69.80;;;;;;5042532;28;20192;-66
2021/01/15 02:00:28;;;;;;;6.00;2.00;;;-0.40;70.00;;;;;;5048988;23;20230;-66
2021/01/15 02:02:54;;;;;;;3.67;2.07;;;-0.40;69.50;;;;;;5028826;23;20239;-66
2021/01/15 02:05:20;;;;;;;3.73;1.50;;;-0.40;69.20;;;;;;5008423;28;20215;-65
2021/01/15 02:07:45;;;;;;;3.53;1.77;;;-0.40;69.50;;;;;;5027846;28;20325;-66
2021/01/15 02:10:32;;;;;;;6.97;2.30;;;-0.40;69.40;;;;;;5031399;23;20235;-65
2021/01/15 02:13:13;;;;;;;3.37;1.93;;;-0.40;69.50;;;;;;5039043;23;20250;-66
2021/01/15 02:15:49;;;;;;;5.43;2.40;;;-0.40;69.70;;;;;;5053551;23;20707;-66
2021/01/15 02:18:30;;;;;;;2.80;1.53;;;-0.40;69.30;;;;;;5029601;28;20660;-66
2021/01/15 02:21:33;;;;;;;4.07;2.13;;;-0.50;69.40;;;;;;5057582;23;20299;-65
2021/01/15 02:24:34;;;;;;;3.97;1.10;;;-0.50;69.20;;;;;;5028124;23;20231;-65
2021/01/15 02:27:02;;;;;;;4.50;1.70;;;-0.50;69.40;;;;;;5007018;23;20869;-65
2021/01/15 02:29:30;;;;;;;5.07;2.30;;;-0.50;69.60;;;;;;5008715;28;20190;-65
2021/01/15 02:32:14;;;;;;;2.33;1.13;;;-0.50;69.30;;;;;;5042061;23;20262;-66
2021/01/15 02:35:03;;;;;;;4.50;2.77;;;-0.50;69.10;;;;;;5022827;23;20235;-65
2021/01/15 02:37:57;;;;;;;3.73;1.97;;;-0.50;69.00;;;;;;5017869;23;20329;-65
2021/01/15 02:40:30;;;;;;;3.80;1.80;;;-0.50;69.20;;;;;;5032904;23;20222;-66
2021/01/15 02:42:57;;;;;;;4.70;2.13;;;-0.40;68.90;;;;;;5017563;22;20243;-66
2021/01/15 02:45:23;;;;;;;5.70;1.93;;;-0.50;69.40;;;;;;5028775;23;20239;-66
2021/01/15 02:47:53;;;;;;;2.90;1.27;;;-0.50;69.30;;;;;;5026274;28;20310;-65
2021/01/15 02:50:24;;;;;;;4.97;2.17;;;-0.50;69.10;;;;;;5014982;23;20318;-65
2021/01/15 02:52:50;;;;;;;2.97;1.20;;;-0.50;69.10;;;;;;5014158;23;20230;-66
2021/01/15 02:55:16;;;;;;;3.57;1.83;;;-0.50;69.30;;;;;;5010244;28;20286;-66
2021/01/15 02:57:42;;;;;;;3.43;1.27;;;;;;;;;;5049712;23;20235;-66
2021/01/15 03:00:14;;;;;;;2.87;1.10;;;-0.40;69.40;;;;;;5014527;28;20217;-66
2021/01/15 03:03:01;;;;;;;4.10;2.13;;;-0.40;69.60;;;;;;5050924;23;20226;-65
2021/01/15 03:05:39;;;;;;;2.20;1.23;;;-0.40;69.90;;;;;;5027366;28;20211;-65
2021/01/15 03:08:05;;;;;;;2.57;1.13;;;-0.40;70.00;;;;;;5002895;23;20674;-65
2021/01/15 03:10:33;;;;;;;3.60;1.57;;;-0.40;70.10;;;;;;5034854;23;20258;-65
2021/01/15 03:13:02;;;;;;;3.73;1.57;;;-0.30;70.40;;;;;;5054134;23;20290;-65
2021/01/15 03:15:31;;;;;;;4.17;2.33;;;-0.30;70.40;;;;;;5019680;28;20186;-65
2021/01/15 03:17:57;;;;;;;2.57;1.47;;;-0.30;70.60;;;;;;5022098;23;20245;-65
2021/01/15 03:20:25;;;;;;;4.50;1.77;;;-0.20;70.70;;;;;;5027766;23;20552;-65
2021/01/15 03:22:52;;;;;;;4.90;2.03;;;-0.20;70.70;;;;;;5046186;23;20681;-66
2021/01/15 03:25:18;;;;;;;4.50;1.90;;;-0.20;71.20;;;;;;5033602;28;20182;-65
2021/01/15 03:27:46;;;;;;;4.67;1.80;;;-0.20;71.40;;;;;;5034686;22;20227;-65
2021/01/15 03:30:14;;;;;;;3.40;2.13;;;-0.20;71.20;;;;;;5015048;23;20696;-65
2021/01/15 03:32:41;;;;;;;4.63;2.20;;;;;;;;;;5039245;28;20261;-66
2021/01/15 03:35:07;;;;;;;3.13;1.70;;;-0.20;71.90;;;;;;5049728;23;20222;-66
2021/01/15 03:37:34;;;;;;;5.10;2.03;;;-0.10;72.00;;;;;;5018704;23;20342;-65
2021/01/15 03:40:02;;;;;;;4.03;1.93;;;-0.20;71.90;;;;;;5046634;23;20587;-65
2021/01/15 03:42:28;;;;;;;2.67;1.63;;;;;;;;;;5047346;28;20189;-66
2021/01/15 03:44:54;;;;;;;4.70;2.10;;;0.00;72.10;;;;;;5045873;23;20250;-66
2021/01/15 03:47:19;;;;;;;3.47;1.80;;;0.00;72.10;;;;;;5035886;28;20225;-66
2021/01/15 03:49:45;;;;;;;3.50;1.70;;;0.00;72.00;;;;;;5055279;23;20639;-66
2021/01/15 03:52:11;;;;;;;4.07;2.30;;;;;;;;;;5050434;23;20226;-66
2021/01/15 03:54:37;;;;;;;5.57;2.40;;;0.10;72.20;;;;;;5028477;28;20225;-66
2021/01/15 03:57:04;;;;;;;9.23;2.30;;;0.10;72.20;;;;;;5035093;23;20733;-65
2021/01/15 03:59:30;;;;;;;4.17;1.67;;;0.10;72.20;;;;;;5026441;28;20190;-65
2021/01/15 04:01:56;;;;;;;4.27;2.17;;;0.10;72.20;;;;;;5033597;23;20238;-65
2021/01/15 04:04:21;;;;;;;6.47;2.47;;;0.10;72.20;;;;;;5027080;23;20341;-65
2021/01/15 04:06:47;;;;;;;2.90;1.53;;;0.20;72.30;;;;;;5022846;28;20199;-66
2021/01/15 04:09:12;;;;;;;5.07;2.63;;;0.20;72.30;;;;;;5019260;23;20239;-66
2021/01/15 04:11:38;;;;;;;5.63;3.00;;;;;;;;;;5047151;23;20332;-65
2021/01/15 04:14:04;;;;;;;4.53;2.30;;;0.20;72.30;;;;;;5044614;28;20538;-66
2021/01/15 04:16:29;;;;;;;3.63;2.20;;;0.20;72.30;;;;;;5051096;23;20236;-65
2021/01/15 04:18:55;;;;;;;7.87;2.90;;;;;;;;;;5038527;23;20239;-65
2021/01/15 04:21:21;;;;;;;5.00;2.23;;;0.20;72.30;;;;;;5024471;28;20198;-66
2021/01/15 04:23:47;;;;;;;4.87;2.80;;;0.20;72.60;;;;;;5024662;28;20206;-66
2021/01/15 04:26:19;;;;;;;4.03;2.60;;;0.30;72.40;;;;;;5030905;23;20237;-66
2021/01/15 04:28:45;;;;;;;5.67;2.97;;;0.30;72.40;;;;;;5008447;28;20191;-65
2021/01/15 04:31:14;;;;;;;5.23;2.70;;;0.30;72.60;;;;;;5033763;23;20740;-65
2021/01/15 04:33:40;;;;;;;6.87;3.40;;;0.30;72.90;;;;;;5044078;23;20245;-66
2021/01/15 04:36:06;;;;;;;5.53;2.87;;;0.40;72.80;;;;;;5057718;23;20230;-65
2021/01/15 04:38:32;;;;;;;4.40;2.77;;;0.40;72.50;;;;;;5035497;23;20220;-65
2021/01/15 04:40:58;;;;;;;6.07;2.33;;;0.40;72.70;;;;;;5046995;23;20713;-66
2021/01/15 04:43:27;;;;;;;7.90;3.03;;;0.40;72.50;;;;;;5053956;23;20229;-65
2021/01/15 04:45:54;;;;;;;10.97;3.97;;;0.40;72.50;;;;;;5031906;28;20198;-66
2021/01/15 04:48:21;;;;;;;4.83;2.57;;;0.50;72.90;;;;;;5056732;23;20703;-66
2021/01/15 04:50:48;;;;;;;5.60;2.30;;;0.50;73.20;;;;;;5040107;23;20237;-66
2021/01/15 04:53:19;;;;;;;5.77;3.00;;;0.40;73.70;;;;;;5043537;28;20194;-66
2021/01/15 04:55:45;;;;;;;6.67;2.93;;;0.40;73.80;;;;;;5053410;28;20221;-65
2021/01/15 04:58:12;;;;;;;7.73;2.97;;;0.40;74.40;;;;;;5059240;23;20226;-65
2021/01/15 05:00:41;;;;;;;6.50;3.50;;;0.40;74.60;;;;;;5041891;22;20247;-66
2021/01/15 05:03:09;;;;;;;5.00;2.70;;;0.50;74.30;;;;;;5047130;22;20590;-65
2021/01/15 05:05:44;;;;;;;7.60;3.37;;;0.50;74.80;;;;;;5028634;28;20217;-66
2021/01/15 05:08:14;;;;;;;5.77;3.07;;;0.50;74.50;;;;;;5053587;23;20594;-66
2021/01/15 05:10:45;;;;;;;10.50;3.97;;;0.50;74.30;;;;;;5032994;28;20197;-66
2021/01/15 05:13:13;;;;;;;8.50;3.03;;;0.60;74.70;;;;;;5052566;23;20219;-65
2021/01/15 05:15:43;;;;;;;8.07;4.73;;;0.60;74.60;;;;;;5052584;23;20707;-66
2021/01/15 05:18:09;;;;;;;5.20;2.80;;;0.60;74.70;;;;;;5059785;23;20319;-66
2021/01/15 05:20:36;;;;;;;7.57;3.53;;;0.60;74.40;;;;;;5056696;23;20237;-65
2021/01/15 05:23:06;;;;;;;7.17;2.93;;;0.60;74.90;;;;;;5052888;23;20238;-66
2021/01/15 05:25:33;;;;;;;5.97;3.23;;;0.60;75.00;;;;;;5048232;23;20233;-65
2021/01/15 05:27:59;;;;;;;7.93;4.07;;;0.50;74.90;;;;;;5049060;28;20190;-66
2021/01/15 05:30:26;;;;;;;6.07;3.17;;;0.60;74.70;;;;;;5047195;23;20234;-66
2021/01/15 05:32:54;;;;;;;8.43;4.03;;;0.60;74.70;;;;;;5039489;23;20247;-66
2021/01/15 05:35:39;;;;;;;6.27;3.60;;;0.60;74.70;;;;;;5052880;23;20238;-66
2021/01/15 05:38:05;;;;;;;7.90;4.20;;;0.50;75.20;;;;;;5037693;23;20554;-66
2021/01/15 05:40:36;;;;;;;6.73;3.50;;;0.60;75.00;;;;;;5027374;28;20209;-66
2021/01/15 05:43:02;;;;;;;6.13;3.10;;;0.60;75.20;;;;;;5031330;23;20592;-66
2021/01/15 05:45:28;;;;;;;5.97;2.87;;;0.60;75.20;;;;;;5031461;23;20228;-65
2021/01/15 05:47:54;;;;;;;6.23;3.70;;;;;;;;;;5017654;28;20183;-66
2021/01/15 05:50:20;;;;;;;7.23;3.77;;;0.60;75.10;;;;;;5049354;23;20238;-66
2021/01/15 05:52:56;;;;;;;7.53;4.37;;;0.60;74.60;;;;;;5037815;23;20230;-65
2021/01/15 05:55:23;;;;;;;5.93;4.03;;;0.50;74.70;;;;;;5043203;23;20311;-65
2021/01/15 05:57:50;;;;;;;9.13;4.30;;;0.60;74.60;;;;;;5040224;28;20248;-66
2021/01/15 06:00:24;;;;;;;7.53;4.13;;;0.50;74.50;;;;;;5038332;23;20235;-65
2021/01/15 06:02:52;;;;;;;6.03;3.57;;;0.60;75.10;;;;;;5037209;23;20261;-65
2021/01/15 06:05:21;;;;;;;6.73;3.17;;;0.60;74.00;;;;;;5034446;23;20230;-65
2021/01/15 06:07:53;;;;;;;7.07;3.30;;;0.60;74.10;;;;;;5030065;23;20249;-66
2021/01/15 06:10:18;;;;;;;8.43;4.77;;;0.50;73.70;;;;;;5038392;23;20231;-66
2021/01/15 06:12:44;;;;;;;5.70;2.73;;;0.50;73.90;;;;;;5021699;28;20218;-66
2021/01/15 06:15:10;;;;;;;6.70;3.13;;;0.50;73.10;;;;;;5024060;28;20183;-66
2021/01/15 06:17:39;;;;;;;6.43;3.67;;;0.40;72.50;;;;;;5045874;23;20380;-65
2021/01/15 06:20:06;;;;;;;6.27;2.67;;;0.40;72.50;;;;;;5022275;23;20234;-66
2021/01/15 06:22:36;;;;;;;6.40;3.33;;;0.30;72.70;;;;;;5012378;28;20273;-66
2021/01/15 06:25:10;;;;;;;7.53;4.33;;;0.40;73.30;;;;;;5033685;23;20621;-65
2021/01/15 06:27:42;;;;;;;3.87;2.30;;;0.40;72.50;;;;;;5025943;28;20188;-66
2021/01/15 06:30:17;;;;;;;6.73;4.13;;;0.30;72.40;;;;;;5001996;28;20206;-66
2021/01/15 06:32:44;;;;;;;4.97;2.03;;;0.30;72.40;;;;;;5030209;28;20194;-66
2021/01/15 06:35:30;;;;;;;7.50;3.10;;;0.30;72.40;;;;;;5031127;23;20226;-65
2021/01/15 06:38:03;;;;;;;5.43;3.37;;;0.30;72.30;;;;;;5038576;23;20227;-65
2021/01/15 06:40:41;;;;;;;4.57;2.83;;;0.30;72.40;;;;;;5040328;23;20227;-65
2021/01/15 06:43:25;;;;;;;5.73;2.97;;;0.20;72.30;;;;;;5045076;28;20539;-65
2021/01/15 06:45:55;;;;;;;6.93;2.90;;;0.20;72.30;;;;;;5028517;23;20441;-66
2021/01/15 06:48:26;;;;;;;7.93;3.43;;;0.10;72.20;;;;;;5022028;28;20188;-65
2021/01/15 06:50:56;;;;;;;2.57;1.60;;;0.10;72.20;;;;;;5041853;23;20258;-66
2021/01/15 06:53:27;;;;;;;8.00;3.60;;;0.00;72.10;;;;;;5043042;23;20234;-66
2021/01/15 06:55:57;;;;;;;5.23;3.73;;;0.10;72.20;;;;;;5040015;28;20285;-65
2021/01/15 06:58:23;;;;;;;5.60;2.63;;;;;;;;;;4995226;23;624165;-66
2021/01/15 07:01:12;;;;;;;5.93;3.37;;;0.10;72.20;;;;;;4999718;28;20227;-66
2021/01/15 07:03:57;;;;;;;5.80;3.57;;;0.00;71.70;;;;;;5035725;23;20253;-65
2021/01/15 07:06:28;;;;;;;7.47;3.87;;;-0.10;72.00;;;;;;5035686;28;20189;-65
2021/01/15 07:08:59;;;;;;;6.93;3.47;;;-0.10;72.00;;;;;;5014968;22;20227;-65
2021/01/15 07:11:30;;;;;;;9.10;3.90;;;-0.20;71.90;;;;;;4997982;28;20631;-66
2021/01/15 07:14:01;;;;;;;7.73;4.20;;;-0.20;72.90;;;;;;4997943;28;20189;-66
2021/01/15 07:16:36;;;;;;;4.93;3.13;;;0.20;72.30;;;;;;5021851;23;20293;-66
2021/01/15 07:19:05;;;;;;;6.73;3.47;;;-0.20;71.90;;;;;;5015440;23;20735;-66
2021/01/15 07:21:34;;;;;;;6.47;3.80;;;-0.20;71.90;;;;;;5007457;28;20287;-66
2021/01/15 07:24:08;;;;;;;7.07;3.63;;;-0.20;71.90;;;;;;5019365;23;20271;-65
2021/01/15 07:26:39;;;;;;;4.17;3.20;;;-0.20;71.90;;;;;;5036745;22;20222;-66
2021/01/15 07:29:10;;;;;;;7.83;2.77;;;-0.10;71.60;;;;;;5023467;23;20570;-66
2021/01/15 07:31:50;;;;;;;5.47;2.80;;;-0.20;70.80;;;;;;5019561;28;20183;-66
2021/01/15 07:34:22;;;;;;;5.57;3.30;;;-0.20;71.20;;;;;;5013624;22;20235;-65
2021/01/15 07:36:49;;;;;;;8.33;3.50;;;-0.20;70.20;;;;;;5035138;23;20325;-65
2021/01/15 07:39:17;;;;;;;5.90;3.10;;;-0.20;70.00;;;;;;5021120;28;20192;-65
2021/01/15 07:41:49;;;;;;;5.20;3.00;;;-0.20;69.80;;;;;;5027468;23;20502;-66
2021/01/15 07:44:21;;;;;;;4.73;2.47;;;-0.20;69.40;;;;;;4984308;28;20188;-66
2021/01/15 07:46:55;;;;;;;7.97;3.37;;;-0.20;69.30;;;;;;5034072;23;20227;-66
2021/01/15 07:49:21;;;;;;;6.87;3.40;;;;;;;;;;5032570;28;20277;-65
2021/01/15 07:52:07;;;;;;;6.93;3.60;;;-0.20;69.10;;;;;;5050097;28;20205;-66
2021/01/15 07:54:51;;;;;;;6.43;3.57;;;-0.20;68.80;;;;;;5036248;23;20266;-66
2021/01/15 07:57:18;;;;;;;6.87;4.53;;;-0.20;69.30;;;;;;5016200;28;20226;-65
2021/01/15 07:59:44;;;;;;;9.77;4.27;;;-0.10;69.10;;;;;;5019741;23;20254;-65
2021/01/15 08:02:10;;;;;;;5.20;3.47;;;-0.10;70.00;;;;;;5017926;28;20221;-66
2021/01/15 08:04:36;;;;;;;6.53;3.67;;;0.00;70.00;;;;;;5039503;23;20585;-66
2021/01/15 08:07:33;;;;;;;5.53;3.27;;;0.00;69.80;;;;;;5040109;28;20195;-66
2021/01/15 08:09:59;;;;;;;6.70;3.20;;;0.10;69.80;;;;;;5031695;23;20345;-66
2021/01/15 08:12:25;;;;;;;11.00;5.10;;;;;;;;;;5041392;23;20312;-66
2021/01/15 08:14:52;;;;;;;10.77;4.53;;;0.20;69.80;;;;;;5035600;28;20226;-65
2021/01/15 08:17:27;;;;;;;9.90;4.57;;;0.20;70.00;;;;;;4959689;28;20338;-66
2021/01/15 08:19:53;;;;;;;9.13;3.50;;;;;;;;;;5021733;23;20232;-66
2021/01/15 08:22:19;;;;;;;7.80;4.07;;;;;;;;;;5033722;28;20965;-66
2021/01/15 08:24:45;;;;;;;8.53;4.10;;;;;;;;;;5021959;28;20188;-66
2021/01/15 08:27:16;;;;;;;6.00;3.50;;;0.20;70.10;;;;;;5018867;23;20405;-66
2021/01/15 08:29:42;;;;;;;6.77;3.93;;;0.30;70.10;;;;;;5008696;28;20579;-66
2021/01/15 08:32:08;;;;;;;9.50;3.43;;;0.30;70.00;;;;;;5020094;22;20283;-66
2021/01/15 08:34:35;;;;;;;7.90;4.43;;;0.40;69.80;;;;;;5027052;23;20235;-65
2021/01/15 08:37:03;;;;;;;8.90;4.40;;;0.40;69.80;;;;;;5029478;22;20305;-66
2021/01/15 08:39:29;;;;;;;7.63;4.40;;;0.40;69.70;;;;;;5019429;23;20242;-65
2021/01/15 08:41:54;;;;;;;8.13;4.93;;;0.40;69.60;;;;;;5008861;23;20234;-66
2021/01/15 08:44:23;;;;;;;8.77;4.13;;;0.40;69.30;;;;;;5024178;28;20580;-66
2021/01/15 08:46:53;;;;;;;6.67;3.90;;;0.50;68.30;;;;;;5025053;28;20276;-66
2021/01/15 08:49:19;;;;;;;6.53;3.50;;;0.50;67.90;;;;;;5026035;22;20745;-66
2021/01/15 08:51:50;;;;;;;9.40;4.50;;;0.70;67.30;;;;;;5032068;22;20237;-66
2021/01/15 08:54:17;;;;;;;5.23;3.37;;;0.70;67.50;;;;;;5020896;28;20335;-66
2021/01/15 08:56:45;;;;;;;5.07;3.87;;;0.70;66.70;;;;;;5030511;23;20632;-66
2021/01/15 08:59:27;;;;;;;12.40;4.93;;;0.70;66.40;;;;;;5031149;23;20245;-66
2021/01/15 09:02:06;;;;;;;10.60;4.43;;;0.70;66.30;;;;;;5022521;28;20532;-66
2021/01/15 09:04:35;;;;;;;8.90;3.87;;;0.70;65.40;;;;;;4999960;23;20232;-66
2021/01/15 09:07:04;;;;;;;10.43;5.03;;;0.90;66.30;;;;;;4967984;28;20211;-66
2021/01/15 09:09:31;;;;;;;7.23;4.03;;;0.90;65.70;;;;;;5008944;23;20220;-66
2021/01/15 09:12:03;;;;;;;6.97;3.87;;;1.00;65.50;;;;;;5027565;23;20238;-67
2021/01/15 09:14:28;;;;;;;6.30;3.50;;;0.90;65.80;;;;;;5020639;28;20281;-66
2021/01/15 09:16:54;;;;;;;8.17;4.23;;;0.90;65.10;;;;;;5023971;28;20298;-66
2021/01/15 09:19:21;;;;;;;6.43;3.23;;;1.20;64.80;;;;;;5012665;23;20254;-66
2021/01/15 09:22:00;;;;;;;9.17;3.73;;;1.10;64.70;;;;;;5003698;28;20188;-66
2021/01/15 09:24:28;;;;;;;9.40;4.53;;;1.10;64.70;;;;;;5009334;23;20262;-66
2021/01/15 09:27:05;;;;;;;7.13;4.23;;;1.20;64.80;;;;;;5039365;23;20591;-66
2021/01/15 09:29:33;;;;;;;6.80;3.73;;;1.20;64.80;;;;;;5037050;28;20191;-66
2021/01/15 09:31:59;;;;;;;8.37;5.40;;;;;;;;;;5015922;23;20250;-66
2021/01/15 09:34:26;;;;;;;9.30;4.80;;;1.20;64.80;;;;;;4998426;28;20184;-66
2021/01/15 09:36:53;;;;;;;2.80;1.57;;;1.40;63.90;;;;;;5005317;28;20215;-65
2021/01/15 09:39:23;;;;;;;7.87;3.67;;;1.40;64.00;;;;;;5023089;23;20234;-66
2021/01/15 09:41:54;;;;;;;6.57;3.73;;;1.40;65.00;;;;;;5003108;28;20236;-66
2021/01/15 09:44:21;;;;;;;7.60;3.77;;;1.40;63.90;;;;;;5009100;23;20243;-66
2021/01/15 09:46:50;;;;;;;6.00;3.13;;;1.50;64.70;;;;;;5005529;28;20515;-66
2021/01/15 09:49:16;;;;;;;6.83;3.97;;;1.50;65.00;;;;;;5018234;23;20411;-66
2021/01/15 09:51:42;;;;;;;7.93;4.13;;;1.60;64.00;;;;;;5026717;22;20250;-66
2021/01/15 09:54:08;;;;;;;2.97;1.37;;;1.60;64.40;;;;;;5027466;23;20690;-66
2021/01/15 09:56:42;;;;;;;5.67;2.37;;;1.60;64.70;;;;;;5028204;23;20237;-66
2021/01/15 09:59:10;;;;;;;7.20;3.43;;;1.50;65.00;;;;;;5007097;28;20267;-65
2021/01/15 10:01:36;;;;;;;3.30;1.43;;;1.70;64.20;;;;;;5028198;23;20233;-64
2021/01/15 10:04:02;;;;;;;5.63;3.43;;;1.70;64.20;;;;;;4997254;28;20207;-65
2021/01/15 10:06:28;;;;;;;7.47;3.83;;;;;;;;;;4992897;23;20334;-65
2021/01/15 10:08:55;;;;;;;4.40;3.07;;;1.90;63.80;;;;;;4987746;28;20275;-65
2021/01/15 10:11:33;;;;;;;8.23;4.07;;;1.80;64.30;;;;;;5000467;28;20188;-65
2021/01/15 10:14:01;;;;;;;11.40;2.80;;;1.90;64.40;;;;;;4980584;28;20555;-65
2021/01/15 10:16:27;;;;;;;3.87;2.40;;;1.90;64.80;;;;;;4988498;23;20332;-66
2021/01/15 10:18:54;;;;;;;5.83;3.23;;;2.00;64.40;;;;;;5006240;23;20228;-65
2021/01/15 10:21:27;;;;;;;14.50;4.70;;;2.00;64.10;;;;;;5000375;23;20223;-66
2021/01/15 10:23:54;;;;;;;9.23;4.80;;;2.00;65.10;;;;;;5001758;28;20220;-67
2021/01/15 10:26:40;;;;;;;7.37;3.67;;;2.10;64.40;;;;;;5008764;23;20648;-67
2021/01/15 10:29:11;;;;;;;6.50;4.63;;;2.10;64.80;;;;;;5018075;23;20300;-67
2021/01/15 10:31:50;;;;;;;3.13;1.83;;;2.10;64.80;;;;;;5025122;28;20187;-68
2021/01/15 10:34:16;;;;;;;6.83;3.87;;;2.00;65.50;;;;;;5142732;23;20628;-67
2021/01/15 10:36:43;;;;;;;8.07;2.93;;;2.00;65.50;;;;;;5071325;23;20692;-67
2021/01/15 10:39:10;;;;;;;5.87;2.97;;;;;;;;;;5024812;23;20239;-67
2021/01/15 10:41:38;;;;;;;9.05;5.05;;;2.20;65.70;;;;;;5022415;28;20909;-67
2021/01/15 10:44:06;;;;;;;8.63;4.40;;;2.10;66.10;;;;;;5009050;28;20655;-66
2021/01/15 10:46:42;;;;;;;8.37;3.53;;;2.10;65.80;;;;;;5018259;23;20235;-65
2021/01/15 10:49:13;;;;;;;8.50;4.27;;;2.00;66.90;;;;;;5009027;23;20227;-66
2021/01/15 10:51:47;;;;;;;8.17;4.17;;;2.00;67.00;;;;;;5019358;23;20227;-65
2021/01/15 10:54:12;;;;;;;8.27;5.10;;;2.10;66.90;;;;;;5028812;23;20317;-65
2021/01/15 10:56:39;;;;;;;6.50;3.33;;;2.20;67.10;;;;;;5035021;23;20317;-67
2021/01/15 10:59:06;;;;;;;5.90;2.73;;;2.20;67.30;;;;;;5026794;28;20187;-68
2021/01/15 11:01:45;;;;;;;10.47;4.73;;;2.30;67.10;;;;;;5035170;23;20570;-66
2021/01/15 11:04:12;;;;;;;6.07;4.33;;;2.40;66.80;;;;;;5241083;22;20577;-67
2021/01/15 11:06:39;;;;;;;7.53;3.43;;;2.40;66.80;;;;;;5030709;28;20183;-68
2021/01/15 11:09:11;;;;;;;8.63;4.27;;;2.30;67.40;;;;;;5010010;23;20289;-65
2021/01/15 11:11:36;;;;;;;9.90;3.80;;;2.40;66.80;;;;;;5006446;28;20671;-67
2021/01/15 11:14:02;;;;;;;7.87;4.30;;;2.50;66.70;;;;;;5023293;23;20338;-68
2021/01/15 11:16:28;;;;;;;6.40;2.90;;;2.60;66.00;;;;;;5022474;23;20234;-62
2021/01/15 11:18:53;;;;;;;8.30;4.63;;;2.50;65.90;;;;;;5013058;28;20249;-63
2021/01/15 11:21:26;;;;;;;6.97;3.83;;;2.60;66.00;;;;;;5003122;28;20327;-63
2021/01/15 11:23:52;;;;;;;7.00;3.93;;;2.60;66.60;;;;;;5011837;28;20611;-66
2021/01/15 11:26:25;;;;;;;4.37;2.80;;;2.60;66.30;;;;;;5027486;23;20255;-66
2021/01/15 11:28:55;;;;;;;4.83;2.90;;;2.60;66.50;;;;;;5011602;23;20273;-66
2021/01/15 11:31:22;;;;;;;7.90;4.13;;;2.60;66.70;;;;;;4977198;23;20759;-66
2021/01/15 11:33:49;;;;;;;9.00;4.37;;;2.50;67.30;;;;;;4995235;23;20249;-66
2021/01/15 11:36:15;;;;;;;6.97;4.27;;;2.70;66.50;;;;;;4993754;28;20231;-66
2021/01/15 11:38:41;;;;;;;4.10;2.93;;;2.70;66.10;;;;;;5003248;23;20244;-66
2021/01/15 11:41:08;;;;;;;6.80;3.27;;;2.60;67.20;;;;;;4983855;28;20543;-66
2021/01/15 11:43:35;;;;;;;8.60;4.30;;;2.80;66.90;;;;;;5020582;23;20317;-66
2021/01/15 11:46:02;;;;;;;10.97;5.50;;;3.50;67.70;;;;;;5018986;28;20226;-67
2021/01/15 11:48:29;;;;;;;8.90;4.67;;;2.70;67.50;;;;;;5025976;23;20560;-67
2021/01/15 11:50:55;;;;;;;7.27;4.20;;;2.70;67.60;;;;;;5015570;28;20230;-67
2021/01/15 11:53:22;;;;;;;5.93;4.13;;;2.90;66.40;;;;;;5026753;23;20255;-67
2021/01/15 11:55:51;;;;;;;5.57;3.33;;;3.00;66.40;;;;;;5011797;23;20338;-66
2021/01/15 12:03:27;;;;;;;6.77;3.33;;;;;;;;;;5925403;23;20237;-65
2021/01/15 12:05:53;;;;;;;8.07;4.30;;;3.00;66.40;;;;;;5002575;28;20525;-66
2021/01/15 12:08:20;;;;;;;9.63;5.50;;;2.90;66.30;;;;;;5021903;23;20592;-65
2021/01/15 12:10:57;;;;;;;7.83;3.80;;;2.80;66.20;;;;;;5008356;23;20238;-64
2021/01/15 12:13:24;;;;;;;3.17;1.33;;;;;;;;;;5017599;28;20191;-64
2021/01/15 12:15:53;;;;;;;7.80;2.77;;;2.80;66.70;;;;;;5027266;28;20249;-65
2021/01/15 12:18:20;;;;;;;8.60;3.83;;;2.70;67.80;;;;;;5015915;28;20577;-65
2021/01/15 12:20:46;;;;;;;8.33;3.90;;;;;;;;;;5004418;28;20360;-64
2021/01/15 12:23:13;;;;;;;6.27;3.60;;;2.80;67.50;;;;;;5011208;28;20516;-64
2021/01/15 12:25:39;;;;;;;9.03;4.27;;;2.70;67.40;;;;;;5017168;28;20661;-64
2021/01/15 12:28:08;;;;;;;4.83;2.67;;;2.70;67.50;;;;;;5016777;28;20187;-64
2021/01/15 12:30:34;;;;;;;8.27;4.73;;;2.70;68.10;;;;;;5015279;28;20233;-64
2021/01/15 12:33:09;;;;;;;7.40;4.20;;;2.70;68.20;;;;;;5018224;28;20195;-64
2021/01/15 12:35:36;;;;;;;11.80;4.77;;;2.70;68.30;;;;;;5016949;28;20195;-64
2021/01/15 12:38:09;;;;;;;9.73;4.63;;;2.70;68.00;;;;;;5018396;28;20196;-64
2021/01/15 12:40:35;;;;;;;7.23;3.40;;;2.60;69.30;;;;;;5007792;28;20690;-64
2021/01/15 12:43:06;;;;;;;10.80;4.87;;;2.60;69.30;;;;;;5022194;28;20194;-63
2021/01/15 12:45:45;;;;;;;13.57;6.13;;;2.50;69.70;;;;;;5002586;28;20187;-65
2021/01/15 12:48:12;;;;;;;13.07;5.03;;;2.50;69.80;;;;;;5019861;28;20199;-64
2021/01/15 12:50:38;;;;;;;14.33;5.73;;;;;;;;;;5013361;28;20183;-63
2021/01/15 12:53:04;;;;;;;10.93;5.97;;;2.60;69.40;;;;;;5016877;28;20270;-63
2021/01/15 12:55:33;;;;;;;9.70;5.13;;;2.60;69.00;;;;;;5015311;28;20345;-63
2021/01/15 12:58:00;;;;;;;6.23;3.17;;;2.60;69.40;;;;;;4996040;28;20681;-63
2021/01/15 13:00:27;;;;;;;8.63;4.70;;;2.50;69.60;;;;;;5021714;28;20180;-63
2021/01/15 13:02:53;;;;;;;9.37;5.67;;;2.50;69.40;;;;;;5019663;28;20179;-63
2021/01/15 13:05:19;;;;;;;10.97;4.97;;;2.50;69.50;;;;;;5025364;28;20272;-63
2021/01/15 13:07:46;;;;;;;12.87;5.20;;;2.50;69.50;;;;;;4998873;28;20202;-63
2021/01/15 13:10:12;;;;;;;11.00;6.07;;;2.50;69.50;;;;;;5022918;28;20203;-63
2021/01/15 13:12:38;;;;;;;6.07;3.30;;;2.40;69.80;;;;;;5015540;28;20192;-64
2021/01/15 13:15:05;;;;;;;8.63;4.43;;;2.40;69.10;;;;;;5014232;28;20207;-64
2021/01/15 13:17:31;;;;;;;9.07;4.73;;;2.60;68.90;;;;;;5011365;28;20265;-64